createdAt,value
2022-10-28T00:00:47.188Z,975.58
2022-10-28T00:01:47.247Z,975.52
2022-10-28T00:02:47.210Z,975.55
2022-10-28T00:03:47.177Z,975.51
2022-10-28T00:04:47.102Z,975.53
2022-10-28T00:05:47.074Z,975.51
2022-10-28T00:06:47.104Z,975.56
2022-10-28T00:07:47.039Z,975.59
2022-10-28T00:08:48.047Z,975.59
2022-10-28T00:09:46.988Z,975.63
2022-10-28T00:10:46.968Z,975.66
2022-10-28T00:11:47.032Z,975.64
2022-10-28T00:12:46.921Z,975.66
2022-10-28T00:13:46.913Z,975.69
2022-10-28T00:14:46.881Z,975.64
2022-10-28T00:15:46.858Z,975.66
2022-10-28T00:16:46.861Z,975.65
2022-10-28T00:17:46.818Z,975.59
2022-10-28T00:18:46.787Z,975.66
2022-10-28T00:19:46.763Z,975.69
2022-10-28T00:20:46.784Z,975.72
2022-10-28T00:21:46.751Z,975.65
2022-10-28T00:22:46.701Z,975.67
2022-10-28T00:23:46.674Z,975.55
2022-10-28T00:24:47.661Z,975.61
2022-10-28T00:25:46.647Z,975.58
2022-10-28T00:26:46.635Z,975.57
2022-10-28T00:27:46.589Z,975.61
2022-10-28T00:28:46.574Z,975.54
2022-10-28T00:29:46.554Z,975.56
2022-10-28T00:30:46.536Z,975.62
2022-10-28T00:31:46.533Z,975.61
2022-10-28T00:32:46.486Z,975.45
2022-10-28T00:33:46.459Z,975.57
2022-10-28T00:34:46.434Z,975.50
2022-10-28T00:35:46.456Z,975.52
2022-10-28T00:36:46.394Z,975.50
2022-10-28T00:37:46.441Z,975.61
2022-10-28T00:38:46.353Z,975.58
2022-10-28T00:39:46.333Z,975.56
2022-10-28T00:40:46.350Z,975.53
2022-10-28T00:41:46.318Z,975.54
2022-10-28T00:42:46.263Z,975.46
2022-10-28T00:43:46.273Z,975.47
2022-10-28T00:44:46.227Z,975.44
2022-10-28T00:45:46.204Z,975.46
2022-10-28T00:46:46.204Z,975.44
2022-10-28T00:47:46.179Z,975.45
2022-10-28T00:48:46.139Z,975.40
2022-10-28T00:49:46.123Z,975.35
2022-10-28T00:50:46.099Z,975.41
2022-10-28T00:51:46.110Z,975.31
2022-10-28T00:52:47.057Z,975.35
2022-10-28T00:53:46.182Z,975.38
2022-10-28T00:54:46.015Z,975.36
2022-10-28T00:55:45.993Z,975.35
2022-10-28T00:56:45.998Z,975.29
2022-10-28T00:57:45.990Z,975.27
2022-10-28T00:58:45.978Z,975.28
2022-10-28T00:59:45.907Z,975.23
2022-10-28T01:00:45.894Z,975.24
2022-10-28T01:01:46.005Z,975.28
2022-10-28T01:02:45.876Z,975.26
2022-10-28T01:03:45.821Z,975.19
2022-10-28T01:04:45.800Z,975.22
2022-10-28T01:05:45.778Z,975.25
2022-10-28T01:06:45.790Z,975.16
2022-10-28T01:07:45.774Z,975.17
2022-10-28T01:08:45.718Z,975.17
2022-10-28T01:09:45.717Z,975.20
2022-10-28T01:10:45.678Z,975.20
2022-10-28T01:11:45.679Z,975.20
2022-10-28T01:12:45.650Z,975.19
2022-10-28T01:13:45.611Z,975.26
2022-10-28T01:14:45.592Z,975.30
2022-10-28T01:15:45.576Z,975.30
2022-10-28T01:16:45.604Z,975.29
2022-10-28T01:17:45.554Z,975.34
2022-10-28T01:18:45.620Z,975.41
2022-10-28T01:19:46.494Z,975.41
2022-10-28T01:20:48.327Z,975.42
2022-10-28T01:21:45.464Z,975.39
2022-10-28T01:22:45.439Z,975.33
2022-10-28T01:23:45.401Z,975.40
2022-10-28T01:24:45.400Z,975.39
2022-10-28T01:25:45.361Z,975.39
2022-10-28T01:26:45.370Z,975.46
2022-10-28T01:27:45.316Z,975.40
2022-10-28T01:28:45.304Z,975.39
2022-10-28T01:29:45.275Z,975.34
2022-10-28T01:30:45.249Z,975.34
2022-10-28T01:31:45.257Z,975.33
2022-10-28T01:32:45.231Z,975.40
2022-10-28T01:33:45.190Z,975.28
2022-10-28T01:34:45.173Z,975.34
2022-10-28T01:35:45.184Z,975.40
2022-10-28T01:36:45.151Z,975.46
2022-10-28T01:37:45.109Z,975.36
2022-10-28T01:38:45.092Z,975.43
2022-10-28T01:39:45.064Z,975.43
2022-10-28T01:40:45.043Z,975.37
2022-10-28T01:41:45.048Z,975.32
2022-10-28T01:42:44.995Z,975.32
2022-10-28T01:43:44.973Z,975.23
2022-10-28T01:44:44.964Z,975.28
2022-10-28T01:45:44.927Z,975.30
2022-10-28T01:46:44.940Z,975.27
2022-10-28T01:47:44.887Z,975.25
2022-10-28T01:48:44.861Z,975.27
2022-10-28T01:49:44.848Z,975.26
2022-10-28T01:50:44.837Z,975.27
2022-10-28T01:51:44.836Z,975.24
2022-10-28T01:52:44.781Z,975.26
2022-10-28T01:53:44.799Z,975.30
2022-10-28T01:54:44.742Z,975.27
2022-10-28T01:55:44.712Z,975.19
2022-10-28T01:56:44.742Z,975.26
2022-10-28T01:57:44.668Z,975.21
2022-10-28T01:58:44.649Z,975.23
2022-10-28T01:59:44.623Z,975.17
2022-10-28T02:00:44.657Z,975.11
2022-10-28T02:01:44.794Z,975.17
2022-10-28T02:02:44.566Z,975.16
2022-10-28T02:03:44.557Z,975.07
2022-10-28T02:04:44.514Z,975.07
2022-10-28T02:05:44.499Z,975.03
2022-10-28T02:06:44.506Z,975.07
2022-10-28T02:07:44.450Z,975.03
2022-10-28T02:08:44.427Z,975.03
2022-10-28T02:09:44.416Z,975.06
2022-10-28T02:10:44.545Z,974.98
2022-10-28T02:11:44.409Z,975.00
2022-10-28T02:12:44.331Z,975.10
2022-10-28T02:13:44.445Z,975.02
2022-10-28T02:14:44.298Z,975.10
2022-10-28T02:15:44.272Z,975.10
2022-10-28T02:16:44.297Z,975.09
2022-10-28T02:17:44.236Z,975.15
2022-10-28T02:18:44.208Z,975.11
2022-10-28T02:19:44.185Z,975.12
2022-10-28T02:20:44.161Z,975.20
2022-10-28T02:21:44.181Z,975.28
2022-10-28T02:22:44.139Z,975.23
2022-10-28T02:23:44.102Z,975.29
2022-10-28T02:24:44.072Z,975.21
2022-10-28T02:25:44.090Z,975.25
2022-10-28T02:26:44.062Z,975.21
2022-10-28T02:27:44.004Z,975.23
2022-10-28T02:28:43.990Z,975.18
2022-10-28T02:29:43.970Z,975.21
2022-10-28T02:30:43.975Z,975.21
2022-10-28T02:31:43.951Z,975.19
2022-10-28T02:32:43.890Z,975.19
2022-10-28T02:33:43.928Z,975.15
2022-10-28T02:34:43.857Z,975.15
2022-10-28T02:35:43.828Z,975.15
2022-10-28T02:36:43.850Z,975.09
2022-10-28T02:37:43.774Z,975.17
2022-10-28T02:38:44.764Z,975.02
2022-10-28T02:39:43.769Z,975.08
2022-10-28T02:40:43.851Z,975.08
2022-10-28T02:41:43.740Z,975.02
2022-10-28T02:42:43.673Z,975.02
2022-10-28T02:43:43.674Z,974.89
2022-10-28T02:44:43.630Z,974.87
2022-10-28T02:45:43.616Z,974.83
2022-10-28T02:46:43.631Z,974.76
2022-10-28T02:47:43.569Z,974.67
2022-10-28T02:48:43.552Z,974.64
2022-10-28T02:49:43.522Z,974.56
2022-10-28T02:50:43.525Z,974.54
2022-10-28T02:51:43.509Z,974.44
2022-10-28T02:52:43.466Z,974.51
2022-10-28T02:53:43.437Z,974.51
2022-10-28T02:54:43.416Z,974.48
2022-10-28T02:55:43.397Z,974.53
2022-10-28T02:56:43.410Z,974.51
2022-10-28T02:57:43.349Z,974.67
2022-10-28T02:58:43.333Z,974.62
2022-10-28T02:59:43.322Z,974.74
2022-10-28T03:00:43.307Z,974.74
2022-10-28T03:01:43.401Z,974.67
2022-10-28T03:02:43.246Z,974.81
2022-10-28T03:03:43.223Z,974.71
2022-10-28T03:04:43.198Z,974.77
2022-10-28T03:05:43.181Z,974.75
2022-10-28T03:06:43.326Z,974.73
2022-10-28T03:07:43.152Z,974.67
2022-10-28T03:08:43.130Z,974.65
2022-10-28T03:09:43.188Z,974.66
2022-10-28T03:10:43.109Z,974.68
2022-10-28T03:11:43.083Z,974.71
2022-10-28T03:12:43.041Z,974.71
2022-10-28T03:13:43.017Z,974.77
2022-10-28T03:14:42.985Z,974.72
2022-10-28T03:15:42.963Z,974.70
2022-10-28T03:16:42.975Z,974.61
2022-10-28T03:17:42.939Z,974.58
2022-10-28T03:18:42.898Z,974.53
2022-10-28T03:19:42.883Z,974.54
2022-10-28T03:20:42.878Z,974.62
2022-10-28T03:21:42.871Z,974.59
2022-10-28T03:22:42.812Z,974.58
2022-10-28T03:23:42.792Z,974.55
2022-10-28T03:24:42.775Z,974.60
2022-10-28T03:25:42.752Z,974.60
2022-10-28T03:26:42.755Z,974.59
2022-10-28T03:27:42.709Z,974.59
2022-10-28T03:28:42.687Z,974.49
2022-10-28T03:29:45.713Z,974.45
2022-10-28T03:30:42.643Z,974.46
2022-10-28T03:31:42.649Z,974.50
2022-10-28T03:32:42.603Z,974.47
2022-10-28T03:33:42.577Z,974.40
2022-10-28T03:34:42.564Z,974.45
2022-10-28T03:35:42.528Z,974.38
2022-10-28T03:36:42.549Z,974.41
2022-10-28T03:37:42.506Z,974.42
2022-10-28T03:38:42.469Z,974.43
2022-10-28T03:39:42.445Z,974.47
2022-10-28T03:40:42.431Z,974.50
2022-10-28T03:41:42.436Z,974.57
2022-10-28T03:42:42.403Z,974.58
2022-10-28T03:43:42.367Z,974.52
2022-10-28T03:44:42.350Z,974.55
2022-10-28T03:45:42.355Z,974.51
2022-10-28T03:46:42.483Z,974.55
2022-10-28T03:47:42.314Z,974.47
2022-10-28T03:48:42.273Z,974.47
2022-10-28T03:49:42.237Z,974.58
2022-10-28T03:50:42.223Z,974.52
2022-10-28T03:51:42.220Z,974.47
2022-10-28T03:52:42.180Z,974.49
2022-10-28T03:53:42.148Z,974.53
2022-10-28T03:54:42.119Z,974.49
2022-10-28T03:55:42.110Z,974.48
2022-10-28T03:56:42.104Z,974.39
2022-10-28T03:57:42.063Z,974.63
2022-10-28T03:58:42.081Z,974.55
2022-10-28T03:59:42.019Z,974.52
2022-10-28T04:00:41.995Z,974.55
2022-10-28T04:01:42.158Z,974.58
2022-10-28T04:02:41.956Z,974.50
2022-10-28T04:03:41.928Z,974.51
2022-10-28T04:04:41.909Z,974.58
2022-10-28T04:05:41.889Z,974.50
2022-10-28T04:06:41.909Z,974.50
2022-10-28T04:07:41.845Z,974.50
2022-10-28T04:08:41.817Z,974.45
2022-10-28T04:09:42.816Z,974.47
2022-10-28T04:10:47.123Z,974.41
2022-10-28T04:11:42.787Z,974.45
2022-10-28T04:12:41.734Z,974.51
2022-10-28T04:13:41.715Z,974.47
2022-10-28T04:14:41.687Z,974.49
2022-10-28T04:15:41.669Z,974.48
2022-10-28T04:16:41.672Z,974.42
2022-10-28T04:17:41.640Z,974.38
2022-10-28T04:18:41.623Z,974.44
2022-10-28T04:19:42.583Z,974.44
2022-10-28T04:20:41.577Z,974.43
2022-10-28T04:21:41.603Z,974.38
2022-10-28T04:22:41.519Z,974.41
2022-10-28T04:23:41.495Z,974.43
2022-10-28T04:24:41.529Z,974.42
2022-10-28T04:25:41.463Z,974.39
2022-10-28T04:26:41.461Z,974.44
2022-10-28T04:27:41.415Z,974.46
2022-10-28T04:28:41.428Z,974.44
2022-10-28T04:29:41.360Z,974.41
2022-10-28T04:30:41.350Z,974.49
2022-10-28T04:31:41.368Z,974.39
2022-10-28T04:32:41.313Z,974.36
2022-10-28T04:33:41.277Z,974.35
2022-10-28T04:34:41.255Z,974.38
2022-10-28T04:35:41.234Z,974.38
2022-10-28T04:36:41.235Z,974.38
2022-10-28T04:37:41.207Z,974.34
2022-10-28T04:38:41.168Z,974.31
2022-10-28T04:39:41.154Z,974.30
2022-10-28T04:40:41.138Z,974.24
2022-10-28T04:41:41.140Z,974.28
2022-10-28T04:42:41.102Z,974.20
2022-10-28T04:43:41.073Z,974.20
2022-10-28T04:44:41.045Z,974.21
2022-10-28T04:45:41.025Z,974.20
2022-10-28T04:46:41.027Z,974.18
2022-10-28T04:47:40.982Z,974.16
2022-10-28T04:48:40.975Z,974.14
2022-10-28T04:49:40.948Z,974.22
2022-10-28T04:50:40.917Z,974.25
2022-10-28T04:51:41.090Z,974.21
2022-10-28T04:52:40.880Z,974.17
2022-10-28T04:53:40.852Z,974.23
2022-10-28T04:54:40.822Z,974.20
2022-10-28T04:55:40.897Z,974.25
2022-10-28T04:56:40.809Z,974.25
2022-10-28T04:57:40.768Z,974.21
2022-10-28T04:58:40.780Z,974.21
2022-10-28T04:59:40.731Z,974.19
2022-10-28T05:00:40.698Z,974.17
2022-10-28T05:01:40.719Z,974.19
2022-10-28T05:02:45.242Z,974.17
2022-10-28T05:03:42.632Z,974.14
2022-10-28T05:04:40.626Z,974.14
2022-10-28T05:05:40.592Z,974.15
2022-10-28T05:06:40.601Z,974.18
2022-10-28T05:07:40.547Z,974.20
2022-10-28T05:08:40.526Z,974.24
2022-10-28T05:09:40.509Z,974.21
2022-10-28T05:10:40.491Z,974.12
2022-10-28T05:11:40.496Z,974.16
2022-10-28T05:12:40.444Z,974.11
2022-10-28T05:13:40.431Z,974.05
2022-10-28T05:14:40.403Z,974.08
2022-10-28T05:15:40.382Z,974.11
2022-10-28T05:16:40.384Z,974.04
2022-10-28T05:17:40.344Z,973.96
2022-10-28T05:18:40.342Z,973.97
2022-10-28T05:19:40.298Z,973.95
2022-10-28T05:20:40.273Z,974.02
2022-10-28T05:21:40.285Z,973.95
2022-10-28T05:22:40.234Z,973.92
2022-10-28T05:23:40.208Z,974.01
2022-10-28T05:24:40.216Z,973.90
2022-10-28T05:25:40.191Z,973.91
2022-10-28T05:26:40.213Z,973.97
2022-10-28T05:27:40.130Z,974.00
2022-10-28T05:28:40.108Z,973.85
2022-10-28T05:29:40.092Z,973.89
2022-10-28T05:30:40.063Z,973.91
2022-10-28T05:31:40.071Z,973.91
2022-10-28T05:32:40.028Z,973.90
2022-10-28T05:33:40.005Z,973.88
2022-10-28T05:34:39.985Z,973.89
2022-10-28T05:35:39.962Z,973.93
2022-10-28T05:36:39.967Z,973.93
2022-10-28T05:37:39.922Z,973.93
2022-10-28T05:38:39.897Z,973.96
2022-10-28T05:39:39.884Z,973.91
2022-10-28T05:40:39.863Z,973.91
2022-10-28T05:41:39.871Z,973.91
2022-10-28T05:42:39.806Z,973.95
2022-10-28T05:43:39.793Z,973.87
2022-10-28T05:44:39.768Z,973.96
2022-10-28T05:45:39.744Z,973.91
2022-10-28T05:46:39.761Z,973.84
2022-10-28T05:47:40.182Z,973.89
2022-10-28T05:48:39.690Z,973.89
2022-10-28T05:49:39.655Z,973.97
2022-10-28T05:50:39.646Z,973.92
2022-10-28T05:51:39.661Z,973.89
2022-10-28T05:52:39.591Z,973.96
2022-10-28T05:53:39.575Z,973.92
2022-10-28T05:54:39.551Z,973.95
2022-10-28T05:55:42.667Z,973.99
2022-10-28T05:56:40.526Z,973.97
2022-10-28T05:57:39.520Z,974.00
2022-10-28T05:58:40.580Z,974.05
2022-10-28T05:59:39.436Z,973.91
2022-10-28T06:00:39.414Z,973.99
2022-10-28T06:01:39.455Z,973.99
2022-10-28T06:02:39.402Z,973.92
2022-10-28T06:03:39.379Z,973.98
2022-10-28T06:04:39.327Z,973.97
2022-10-28T06:05:39.370Z,973.88
2022-10-28T06:06:39.286Z,973.84
2022-10-28T06:07:39.294Z,973.89
2022-10-28T06:08:39.255Z,973.89
2022-10-28T06:09:39.218Z,973.92
2022-10-28T06:10:40.211Z,973.88
2022-10-28T06:11:37.648Z,973.89
2022-10-28T06:12:37.715Z,973.87
2022-10-28T06:13:37.599Z,973.85
2022-10-28T06:14:37.585Z,973.86
2022-10-28T06:15:37.564Z,973.83
2022-10-28T06:16:37.551Z,973.80
2022-10-28T06:17:37.538Z,973.79
2022-10-28T06:18:38.526Z,973.83
2022-10-28T06:19:37.478Z,973.85
2022-10-28T06:20:37.453Z,973.84
2022-10-28T06:21:37.436Z,973.84
2022-10-28T06:22:37.442Z,973.87
2022-10-28T06:23:37.399Z,973.87
2022-10-28T06:24:37.376Z,973.95
2022-10-28T06:25:37.371Z,973.90
2022-10-28T06:26:37.331Z,973.94
2022-10-28T06:27:37.340Z,973.88
2022-10-28T06:28:37.322Z,973.83
2022-10-28T06:29:37.273Z,973.82
2022-10-28T06:30:37.246Z,973.89
2022-10-28T06:31:37.263Z,973.90
2022-10-28T06:32:37.236Z,973.83
2022-10-28T06:33:37.198Z,973.90
2022-10-28T06:34:37.193Z,973.92
2022-10-28T06:35:37.142Z,973.89
2022-10-28T06:36:37.158Z,973.89
2022-10-28T06:37:37.128Z,973.90
2022-10-28T06:38:37.106Z,973.93
2022-10-28T06:39:37.085Z,973.97
2022-10-28T06:40:37.041Z,973.95
2022-10-28T06:41:37.028Z,973.98
2022-10-28T06:42:37.045Z,974.03
2022-10-28T06:43:36.984Z,974.04
2022-10-28T06:44:36.960Z,974.06
2022-10-28T06:45:36.953Z,973.97
2022-10-28T06:46:38.494Z,973.99
2022-10-28T06:47:41.392Z,974.04
2022-10-28T06:48:38.386Z,974.05
2022-10-28T06:49:39.343Z,973.94
2022-10-28T06:50:38.399Z,973.98
2022-10-28T06:51:38.328Z,973.99
2022-10-28T06:52:38.376Z,974.00
2022-10-28T06:53:38.288Z,974.00
2022-10-28T06:54:38.270Z,973.97
2022-10-28T06:55:38.246Z,973.91
2022-10-28T06:56:38.225Z,973.94
2022-10-28T06:57:38.244Z,973.88
2022-10-28T06:58:38.187Z,973.79
2022-10-28T06:59:38.167Z,973.75
2022-10-28T07:00:38.152Z,973.80
2022-10-28T07:01:38.335Z,973.79
2022-10-28T07:02:42.706Z,973.78
2022-10-28T07:03:40.093Z,973.74
2022-10-28T07:04:38.084Z,973.72
2022-10-28T07:05:38.058Z,973.74
2022-10-28T07:06:38.070Z,973.71
2022-10-28T07:07:38.054Z,973.70
2022-10-28T07:08:38.004Z,973.67
2022-10-28T07:09:38.010Z,973.70
2022-10-28T07:10:37.992Z,973.68
2022-10-28T07:11:37.957Z,973.66
2022-10-28T07:12:37.960Z,973.73
2022-10-28T07:13:37.928Z,973.75
2022-10-28T07:14:37.918Z,973.63
2022-10-28T07:15:37.887Z,973.68
2022-10-28T07:16:37.866Z,973.73
2022-10-28T07:17:37.881Z,973.69
2022-10-28T07:18:37.846Z,973.77
2022-10-28T07:19:37.811Z,973.74
2022-10-28T07:20:37.790Z,973.75
2022-10-28T07:21:37.779Z,973.81
2022-10-28T07:22:37.773Z,973.76
2022-10-28T07:23:37.746Z,973.79
2022-10-28T07:24:37.714Z,973.83
2022-10-28T07:25:37.704Z,973.80
2022-10-28T07:26:37.675Z,973.84
2022-10-28T07:27:37.684Z,973.84
2022-10-28T07:28:37.646Z,973.84
2022-10-28T07:29:37.630Z,973.86
2022-10-28T07:30:37.623Z,973.86
2022-10-28T07:31:37.595Z,973.86
2022-10-28T07:32:37.594Z,973.94
2022-10-28T07:33:37.546Z,973.86
2022-10-28T07:34:37.563Z,973.92
2022-10-28T07:35:37.532Z,973.93
2022-10-28T07:36:37.494Z,973.88
2022-10-28T07:37:37.536Z,973.89
2022-10-28T07:38:37.515Z,974.00
2022-10-28T07:40:37.426Z,973.96
2022-10-28T07:41:37.427Z,973.99
2022-10-28T07:42:37.419Z,974.00
2022-10-28T07:43:37.380Z,974.02
2022-10-28T07:44:37.356Z,974.00
2022-10-28T07:45:37.345Z,974.04
2022-10-28T07:46:37.317Z,974.06
2022-10-28T07:47:37.344Z,974.05
2022-10-28T07:48:37.334Z,974.08
2022-10-28T07:49:37.263Z,974.08
2022-10-28T07:50:37.242Z,974.06
2022-10-28T07:51:37.230Z,974.04
2022-10-28T07:52:37.237Z,974.07
2022-10-28T07:53:37.236Z,974.08
2022-10-28T07:54:37.166Z,974.09
2022-10-28T07:55:37.164Z,974.00
2022-10-28T07:56:37.150Z,974.05
2022-10-28T07:57:39.078Z,974.13
2022-10-28T07:58:37.090Z,974.20
2022-10-28T07:59:37.070Z,974.14
2022-10-28T08:00:37.150Z,974.18
2022-10-28T08:01:37.139Z,974.18
2022-10-28T08:02:37.041Z,974.20
2022-10-28T08:03:38.999Z,974.22
2022-10-28T08:04:38.013Z,974.22
2022-10-28T08:05:36.975Z,974.18
2022-10-28T08:06:36.949Z,974.22
2022-10-28T08:07:38.716Z,974.15
2022-10-28T08:08:36.887Z,974.16
2022-10-28T08:09:36.868Z,974.21
2022-10-28T08:10:36.842Z,974.19
2022-10-28T08:11:36.828Z,974.16
2022-10-28T08:12:38.480Z,974.21
2022-10-28T08:13:40.162Z,974.23
2022-10-28T08:14:37.760Z,974.15
2022-10-28T08:15:36.765Z,974.19
2022-10-28T08:16:36.726Z,974.18
2022-10-28T08:17:36.729Z,974.15
2022-10-28T08:18:36.684Z,974.10
2022-10-28T08:19:36.678Z,974.16
2022-10-28T08:20:36.638Z,974.16
2022-10-28T08:21:36.665Z,974.16
2022-10-28T08:22:36.629Z,974.16
2022-10-28T08:23:36.596Z,974.09
2022-10-28T08:24:36.565Z,974.17
2022-10-28T08:25:36.622Z,974.07
2022-10-28T08:26:36.530Z,974.16
2022-10-28T08:27:37.534Z,974.08
2022-10-28T08:28:36.499Z,974.11
2022-10-28T08:29:36.475Z,974.00
2022-10-28T08:30:50.249Z,974.07
2022-10-28T08:31:38.435Z,974.07
2022-10-28T08:32:36.444Z,973.98
2022-10-28T08:33:36.410Z,974.04
2022-10-28T08:34:39.277Z,974.00
2022-10-28T08:35:37.366Z,974.01
2022-10-28T08:36:36.365Z,974.10
2022-10-28T08:37:36.412Z,973.95
2022-10-28T08:38:36.307Z,973.99
2022-10-28T08:39:36.298Z,974.02
2022-10-28T08:40:36.273Z,973.98
2022-10-28T08:41:36.251Z,974.03
2022-10-28T08:42:37.973Z,973.92
2022-10-28T08:43:52.893Z,973.93
2022-10-28T08:44:38.203Z,973.97
2022-10-28T08:45:36.180Z,974.03
2022-10-28T08:46:36.156Z,973.96
2022-10-28T08:47:36.179Z,973.92
2022-10-28T08:48:36.128Z,973.90
2022-10-28T08:49:36.104Z,973.91
2022-10-28T08:50:36.086Z,973.90
2022-10-28T08:51:36.072Z,973.89
2022-10-28T08:52:36.081Z,973.91
2022-10-28T08:53:36.037Z,973.88
2022-10-28T08:54:36.013Z,973.82
2022-10-28T08:55:35.993Z,973.82
2022-10-28T08:56:35.973Z,973.90
2022-10-28T08:57:36.970Z,973.86
2022-10-28T08:58:35.935Z,973.84
2022-10-28T08:59:35.924Z,973.97
2022-10-28T09:00:35.902Z,973.94
2022-10-28T09:01:36.032Z,973.84
2022-10-28T09:02:35.894Z,973.95
2022-10-28T09:03:38.935Z,973.90
2022-10-28T09:04:35.845Z,973.85
2022-10-28T09:05:35.808Z,973.91
2022-10-28T09:06:35.792Z,973.90
2022-10-28T09:07:35.798Z,973.93
2022-10-28T09:08:35.758Z,973.94
2022-10-28T09:09:35.742Z,973.88
2022-10-28T09:10:35.708Z,973.90
2022-10-28T09:11:35.699Z,973.93
2022-10-28T09:12:38.970Z,973.91
2022-10-28T09:13:35.667Z,973.88
2022-10-28T09:14:35.639Z,973.96
2022-10-28T09:15:35.674Z,974.01
2022-10-28T09:16:35.600Z,973.93
2022-10-28T09:17:35.611Z,973.93
2022-10-28T09:18:35.555Z,973.93
2022-10-28T09:19:35.544Z,973.94
2022-10-28T09:20:35.526Z,973.92
2022-10-28T09:21:35.510Z,973.98
2022-10-28T09:22:35.519Z,973.96
2022-10-28T09:23:35.475Z,973.94
2022-10-28T09:24:35.456Z,973.96
2022-10-28T09:25:35.435Z,973.97
2022-10-28T09:26:35.410Z,974.03
2022-10-28T09:27:35.423Z,973.94
2022-10-28T09:28:35.374Z,974.02
2022-10-28T09:29:37.188Z,973.97
2022-10-28T09:30:35.336Z,973.96
2022-10-28T09:31:35.315Z,973.94
2022-10-28T09:32:35.328Z,973.99
2022-10-28T09:33:35.281Z,974.05
2022-10-28T09:34:35.272Z,973.93
2022-10-28T09:35:35.253Z,974.04
2022-10-28T09:36:35.226Z,974.01
2022-10-28T09:37:35.235Z,973.97
2022-10-28T09:38:35.190Z,974.02
2022-10-28T09:39:35.162Z,973.89
2022-10-28T09:40:35.143Z,974.03
2022-10-28T09:41:35.129Z,974.01
2022-10-28T09:42:35.183Z,974.01
2022-10-28T09:43:35.082Z,974.08
2022-10-28T09:44:36.071Z,974.04
2022-10-28T09:45:35.052Z,973.99
2022-10-28T09:46:37.230Z,974.04
2022-10-28T09:47:37.048Z,974.06
2022-10-28T09:48:35.006Z,973.96
2022-10-28T09:49:34.981Z,973.97
2022-10-28T09:50:34.961Z,974.01
2022-10-28T09:51:34.941Z,973.98
2022-10-28T09:52:34.961Z,974.01
2022-10-28T09:53:36.131Z,973.94
2022-10-28T09:54:35.887Z,974.08
2022-10-28T09:55:34.871Z,973.99
2022-10-28T09:56:34.857Z,973.99
2022-10-28T09:57:34.859Z,973.99
2022-10-28T09:58:34.819Z,973.97
2022-10-28T09:59:34.797Z,973.93
2022-10-28T10:00:34.781Z,973.96
2022-10-28T10:01:34.792Z,973.95
2022-10-28T10:02:34.825Z,974.02
2022-10-28T10:03:34.731Z,974.05
2022-10-28T10:04:34.703Z,974.02
2022-10-28T10:05:34.691Z,974.01
2022-10-28T10:06:34.667Z,974.02
2022-10-28T10:07:34.673Z,973.96
2022-10-28T10:08:34.640Z,973.96
2022-10-28T10:09:34.610Z,973.93
2022-10-28T10:10:34.598Z,973.96
2022-10-28T10:11:34.576Z,973.95
2022-10-28T10:12:34.586Z,974.01
2022-10-28T10:13:34.569Z,973.97
2022-10-28T10:14:34.527Z,973.97
2022-10-28T10:15:34.507Z,974.01
2022-10-28T10:16:34.488Z,974.02
2022-10-28T10:17:34.499Z,974.00
2022-10-28T10:18:35.436Z,974.04
2022-10-28T10:19:34.435Z,974.01
2022-10-28T10:20:34.417Z,974.07
2022-10-28T10:21:34.409Z,974.01
2022-10-28T10:22:34.373Z,974.02
2022-10-28T10:23:34.421Z,974.03
2022-10-28T10:24:34.343Z,974.04
2022-10-28T10:25:34.320Z,974.04
2022-10-28T10:26:34.312Z,974.04
2022-10-28T10:27:34.323Z,974.05
2022-10-28T10:28:34.271Z,974.05
2022-10-28T10:29:34.249Z,974.11
2022-10-28T10:30:34.233Z,974.08
2022-10-28T10:31:34.215Z,974.02
2022-10-28T10:32:34.201Z,973.95
2022-10-28T10:33:34.199Z,974.04
2022-10-28T10:34:34.158Z,973.98
2022-10-28T10:35:34.153Z,974.02
2022-10-28T10:36:34.129Z,974.05
2022-10-28T10:37:34.237Z,974.01
2022-10-28T10:38:34.114Z,974.03
2022-10-28T10:39:34.072Z,974.00
2022-10-28T10:40:34.050Z,974.02
2022-10-28T10:41:34.031Z,973.98
2022-10-28T10:42:39.219Z,973.98
2022-10-28T10:43:35.020Z,974.01
2022-10-28T10:44:33.979Z,973.90
2022-10-28T10:45:34.965Z,973.93
2022-10-28T10:46:34.315Z,973.91
2022-10-28T10:47:33.919Z,974.01
2022-10-28T10:48:33.934Z,974.07
2022-10-28T10:49:33.920Z,974.00
2022-10-28T10:50:33.875Z,973.96
2022-10-28T10:51:36.265Z,974.00
2022-10-28T10:52:35.832Z,973.96
2022-10-28T10:53:33.848Z,974.06
2022-10-28T10:54:33.857Z,974.02
2022-10-28T10:55:33.811Z,973.90
2022-10-28T10:56:33.759Z,973.98
2022-10-28T10:57:33.745Z,973.86
2022-10-28T10:58:33.817Z,973.91
2022-10-28T10:59:33.701Z,973.92
2022-10-28T11:00:33.687Z,974.03
2022-10-28T11:01:33.773Z,974.02
2022-10-28T11:02:33.702Z,973.84
2022-10-28T11:03:33.656Z,973.84
2022-10-28T11:04:33.611Z,973.81
2022-10-28T11:05:38.126Z,973.82
2022-10-28T11:06:35.583Z,973.73
2022-10-28T11:07:33.556Z,973.75
2022-10-28T11:08:33.567Z,973.70
2022-10-28T11:09:33.522Z,973.64
2022-10-28T11:10:33.507Z,973.71
2022-10-28T11:11:33.492Z,973.75
2022-10-28T11:12:33.470Z,973.71
2022-10-28T11:13:33.476Z,973.71
2022-10-28T11:14:33.424Z,973.69
2022-10-28T11:15:33.408Z,973.71
2022-10-28T11:16:33.457Z,973.67
2022-10-28T11:18:33.417Z,973.67
2022-10-28T11:19:33.373Z,973.78
2022-10-28T11:20:33.334Z,973.70
2022-10-28T11:21:33.352Z,973.82
2022-10-28T11:22:33.307Z,973.76
2022-10-28T11:23:33.300Z,973.74
2022-10-28T11:24:33.282Z,973.76
2022-10-28T11:25:33.223Z,973.72
2022-10-28T11:26:33.212Z,973.82
2022-10-28T11:27:33.191Z,973.76
2022-10-28T11:28:33.202Z,973.80
2022-10-28T11:29:33.148Z,973.76
2022-10-28T11:30:33.131Z,973.77
2022-10-28T11:31:33.114Z,973.69
2022-10-28T11:32:33.102Z,973.76
2022-10-28T11:33:33.717Z,973.71
2022-10-28T11:34:33.075Z,973.73
2022-10-28T11:35:33.043Z,973.70
2022-10-28T11:36:33.035Z,973.70
2022-10-28T11:37:33.010Z,973.71
2022-10-28T11:38:33.025Z,973.74
2022-10-28T11:39:32.962Z,973.74
2022-10-28T11:40:32.976Z,973.63
2022-10-28T11:41:32.921Z,973.69
2022-10-28T11:42:32.911Z,973.79
2022-10-28T11:43:33.426Z,973.66
2022-10-28T11:44:32.913Z,973.72
2022-10-28T11:45:32.868Z,973.79
2022-10-28T11:46:32.829Z,973.76
2022-10-28T11:47:32.813Z,973.74
2022-10-28T11:48:32.819Z,973.75
2022-10-28T11:49:32.778Z,973.66
2022-10-28T11:50:32.763Z,973.77
2022-10-28T11:51:32.740Z,973.69
2022-10-28T11:52:32.724Z,973.76
2022-10-28T11:53:32.725Z,973.65
2022-10-28T11:54:32.686Z,973.65
2022-10-28T11:55:32.663Z,973.69
2022-10-28T11:56:32.647Z,973.65
2022-10-28T11:57:32.624Z,973.65
2022-10-28T11:58:32.638Z,973.70
2022-10-28T11:59:32.602Z,973.62
2022-10-28T12:00:32.576Z,973.69
2022-10-28T12:01:32.603Z,973.62
2022-10-28T12:02:32.606Z,973.59
2022-10-28T12:03:32.544Z,973.59
2022-10-28T12:04:32.499Z,973.65
2022-10-28T12:05:32.486Z,973.58
2022-10-28T12:06:32.458Z,973.61
2022-10-28T12:07:32.442Z,973.60
2022-10-28T12:08:32.457Z,973.60
2022-10-28T12:09:32.404Z,973.59
2022-10-28T12:10:32.376Z,973.54
2022-10-28T12:11:32.368Z,973.53
2022-10-28T12:12:32.339Z,973.59
2022-10-28T12:13:32.350Z,973.54
2022-10-28T12:14:32.304Z,973.52
2022-10-28T12:15:32.294Z,973.45
2022-10-28T12:16:32.268Z,973.51
2022-10-28T12:17:32.265Z,973.44
2022-10-28T12:18:32.253Z,973.41
2022-10-28T12:19:32.209Z,973.49
2022-10-28T12:20:32.189Z,973.50
2022-10-28T12:21:32.294Z,973.44
2022-10-28T12:22:32.157Z,973.43
2022-10-28T12:23:32.194Z,973.46
2022-10-28T12:24:32.194Z,973.40
2022-10-28T12:25:32.096Z,973.38
2022-10-28T12:26:32.083Z,973.36
2022-10-28T12:27:32.063Z,973.28
2022-10-28T12:28:32.076Z,973.38
2022-10-28T12:29:32.023Z,973.38
2022-10-28T12:30:32.003Z,973.36